Hart, Missouri
Current Conditions -  °F | °C
As of 9:35 AM on Friday 19 Dec 2014 (Local Time) from KGMJ Reporting Station
Haze Haze  
Wind Chill: 39°   Ceiling: 300
Heat Index: 39°   Visibility: 1.5mi
Dew Point: 39°   Wind: 0mph
Humidity: 100%   Direction: NA
Pressure: 30.27"   Gusts: NA
Location:  36.8382°N, 94.5361°W
Report Text: KGMJ 191535Z AUTO 00000KT 1 1/2SM BR OVC003 04/04 A3027 RMK AO2
Loading
Personal Weather Stations






























Interactive Weather Map New forecast layout! Learn more

10-Day Weather Forecast

Advertisements
Track Severe Weather on mobile